createdAt,value
2022-12-29T00:01:20.441Z,0.5
2022-12-29T00:06:22.826Z,0.5
2022-12-29T00:11:26.400Z,0.5
2022-12-29T00:16:28.875Z,0.5
2022-12-29T00:21:31.111Z,0.5
2022-12-29T00:26:34.236Z,0.5
2022-12-29T00:31:36.689Z,0.4
2022-12-29T00:36:38.932Z,0.4
2022-12-29T00:41:40.923Z,0.3
2022-12-29T00:46:43.270Z,0.2
2022-12-29T00:51:46.168Z,0.2
2022-12-29T00:56:48.311Z,0.1
2022-12-29T01:01:51.032Z,0.1
2022-12-29T01:06:53.770Z,0.1
2022-12-29T01:11:55.834Z,0.1
2022-12-29T01:16:58.084Z,0.1
2022-12-29T01:22:00.111Z,0.2
2022-12-29T01:27:02.143Z,0.2
2022-12-29T01:32:04.275Z,0.2
2022-12-29T01:37:06.867Z,0.1
2022-12-29T01:42:09.310Z,0.1
2022-12-29T01:47:12.092Z,0.1
2022-12-29T01:57:15.375Z,0
2022-12-29T02:02:19.355Z,0
2022-12-29T02:07:21.818Z,0
2022-12-29T02:12:23.839Z,0
2022-12-29T02:17:25.998Z,0
2022-12-29T02:22:28.026Z,0
2022-12-29T02:27:30.198Z,-0.1
2022-12-29T02:32:32.229Z,-0.1
2022-12-29T02:37:35.165Z,-0.2
2022-12-29T02:42:37.328Z,-0.2
2022-12-29T02:47:39.362Z,-0.2
2022-12-29T02:52:41.350Z,-0.2
2022-12-29T02:57:44.579Z,-0.1
2022-12-29T03:02:47.582Z,-0.1
2022-12-29T03:07:49.764Z,-0.1
2022-12-29T03:12:51.758Z,-0.2
2022-12-29T03:17:53.856Z,-0.2
2022-12-29T03:22:56.130Z,-0.3
2022-12-29T03:27:58.119Z,-0.4
2022-12-29T03:33:00.158Z,-0.5
2022-12-29T03:38:02.256Z,-0.5
2022-12-29T03:43:04.492Z,-0.6
2022-12-29T03:48:06.963Z,-0.6
2022-12-29T03:53:09.365Z,-0.6
2022-12-29T03:58:11.384Z,-0.7
2022-12-29T04:03:15.096Z,-0.6
2022-12-29T04:08:18.187Z,-0.7
2022-12-29T04:13:20.234Z,-0.7
2022-12-29T04:18:22.248Z,-0.8
2022-12-29T04:23:24.533Z,-0.8
2022-12-29T04:28:27.050Z,-0.8
2022-12-29T04:33:29.446Z,-0.9
2022-12-29T04:38:31.608Z,-0.8
2022-12-29T04:43:33.583Z,-0.8
2022-12-29T04:48:36.282Z,-0.8
2022-12-29T04:53:38.727Z,-0.8
2022-12-29T04:58:40.706Z,-0.8
2022-12-29T05:03:43.253Z,-0.7
2022-12-29T05:08:45.753Z,-0.7
2022-12-29T05:13:47.792Z,-0.8
2022-12-29T05:18:49.956Z,-0.7
2022-12-29T05:23:54.571Z,-0.7
2022-12-29T05:28:56.722Z,-0.7
2022-12-29T05:33:58.774Z,-0.7
2022-12-29T05:39:01.251Z,-0.7
2022-12-29T05:44:03.343Z,-0.7
2022-12-29T05:49:05.479Z,-0.6
2022-12-29T05:54:08.224Z,-0.7
2022-12-29T05:59:10.282Z,-0.7
2022-12-29T06:04:12.544Z,-0.7
2022-12-29T06:09:15.134Z,-0.8
2022-12-29T06:14:17.139Z,-0.8
2022-12-29T06:24:20.420Z,-0.7
2022-12-29T06:29:22.637Z,-0.7
2022-12-29T06:34:27.187Z,-0.7
2022-12-29T06:39:29.514Z,-0.7
2022-12-29T06:44:31.606Z,-0.6
2022-12-29T06:49:35.090Z,-0.5
2022-12-29T06:54:38.204Z,0.2
2022-12-29T06:59:57.953Z,0.7
2022-12-29T07:04:50.460Z,0.7
2022-12-29T07:09:52.667Z,1.6
2022-12-29T07:14:54.799Z,2.6
2022-12-29T07:19:56.889Z,3.3
2022-12-29T07:24:59.264Z,3.5
2022-12-29T07:30:01.281Z,3.8
2022-12-29T07:35:03.298Z,4
2022-12-29T07:40:05.360Z,4.3
2022-12-29T07:45:07.343Z,5.4
2022-12-29T07:50:09.535Z,6.3
2022-12-29T07:55:11.626Z,6.7
2022-12-29T08:00:14.162Z,7.6
2022-12-29T08:05:16.202Z,7.6
2022-12-29T08:10:18.480Z,8.5
2022-12-29T08:15:20.595Z,7.3
2022-12-29T08:20:28.316Z,7.7
2022-12-29T08:30:30.946Z,10
2022-12-29T08:35:32.926Z,10.1
2022-12-29T08:40:35.756Z,10
2022-12-29T08:45:37.907Z,6.3
2022-12-29T08:50:40.231Z,5.1
2022-12-29T08:55:42.428Z,3.7
2022-12-29T09:00:44.802Z,3.4
2022-12-29T09:05:47.624Z,3.8
2022-12-29T09:10:49.717Z,3.7
2022-12-29T09:15:52.168Z,3.9
2022-12-29T09:20:54.308Z,3.8
2022-12-29T09:25:56.789Z,6.7
2022-12-29T09:30:59.033Z,6.7
2022-12-29T09:36:01.225Z,9.2
2022-12-29T09:41:03.303Z,9.9
2022-12-29T09:51:06.048Z,16.7
2022-12-29T09:56:08.172Z,15.6
2022-12-29T10:06:11.435Z,14.9
2022-12-29T10:11:16.202Z,12.8
2022-12-29T10:16:18.666Z,12.7
2022-12-29T10:21:20.844Z,9.4
2022-12-29T10:26:22.992Z,8.1
2022-12-29T10:31:25.471Z,6.9
2022-12-29T10:36:27.906Z,6.4
2022-12-29T10:41:29.995Z,5.8
2022-12-29T10:46:32.126Z,5.7
2022-12-29T10:51:34.234Z,5.4
2022-12-29T10:56:36.301Z,5.3
2022-12-29T11:01:39.039Z,5.5
2022-12-29T11:06:41.312Z,5.4
2022-12-29T11:11:43.591Z,5.7
2022-12-29T11:16:46.190Z,5.7
2022-12-29T11:21:48.351Z,5.5
2022-12-29T11:26:51.372Z,5.6
2022-12-29T11:31:57.989Z,5.6
2022-12-29T11:37:00.555Z,5.5
2022-12-29T11:42:02.882Z,5.7
2022-12-29T11:47:06.383Z,5.9
2022-12-29T11:52:08.757Z,5.8
2022-12-29T11:57:10.814Z,5.9
2022-12-29T12:02:13.587Z,5.9
2022-12-29T12:07:15.833Z,5.8
2022-12-29T12:12:18.061Z,6
2022-12-29T12:17:20.376Z,6
2022-12-29T12:22:22.651Z,6.3
2022-12-29T12:27:25.393Z,6.2
2022-12-29T12:32:27.448Z,6.1
2022-12-29T12:37:29.473Z,6.2
2022-12-29T12:42:31.659Z,6.4
2022-12-29T12:47:34.719Z,6.7
2022-12-29T12:52:36.988Z,6.7
2022-12-29T12:57:39.443Z,6.8
2022-12-29T13:02:42.505Z,6.9
2022-12-29T13:07:45.213Z,6.8
2022-12-29T13:12:47.412Z,6.8
2022-12-29T13:17:49.825Z,6.6
2022-12-29T13:22:58.672Z,6.5
2022-12-29T13:28:01.000Z,6.5
2022-12-29T13:33:05.155Z,6.6
2022-12-29T13:38:22.072Z,8.2
2022-12-29T13:44:02.590Z,8.2
2022-12-29T13:48:18.854Z,8.2
2022-12-29T13:53:17.929Z,8.2
2022-12-29T13:58:20.537Z,8.1
2022-12-29T14:03:32.000Z,7.3
2022-12-29T14:08:24.500Z,7.3
2022-12-29T14:13:27.078Z,6.8
2022-12-29T14:18:29.321Z,6.7
2022-12-29T14:23:31.825Z,6.6
2022-12-29T14:28:34.357Z,6.6
2022-12-29T14:33:36.672Z,6.5
2022-12-29T14:38:40.455Z,6.3
2022-12-29T14:43:42.583Z,6.3
2022-12-29T14:53:46.785Z,6.2
2022-12-29T14:58:48.948Z,6.1
2022-12-29T15:03:51.214Z,6.1
2022-12-29T15:09:00.512Z,6.1
2022-12-29T15:14:02.607Z,6.1
2022-12-29T15:19:04.675Z,6.1
2022-12-29T15:24:06.739Z,5.9
2022-12-29T15:29:08.887Z,5.7
2022-12-29T15:34:11.247Z,5.6
2022-12-29T15:39:13.524Z,5.5
2022-12-29T15:44:15.547Z,5.4
2022-12-29T15:49:17.764Z,5.2
2022-12-29T15:54:19.802Z,5.1
2022-12-29T15:59:21.874Z,5
2022-12-29T16:04:24.011Z,4.8
2022-12-29T16:09:27.297Z,4.6
2022-12-29T16:14:29.604Z,4.3
2022-12-29T16:19:31.986Z,4.1
2022-12-29T16:24:36.571Z,3.9
2022-12-29T16:29:39.015Z,3.6
2022-12-29T16:34:41.338Z,3.5
2022-12-29T16:39:43.933Z,3.1
2022-12-29T16:44:46.151Z,3.1
2022-12-29T16:49:48.319Z,3
2022-12-29T16:54:51.622Z,2.7
2022-12-29T16:59:54.471Z,2.6
2022-12-29T17:04:56.682Z,2.5
2022-12-29T17:09:58.931Z,2.5
2022-12-29T17:15:01.179Z,2.4
2022-12-29T17:20:04.241Z,2.2
2022-12-29T17:30:10.909Z,2
2022-12-29T17:35:19.576Z,1.9
2022-12-29T17:40:22.385Z,1.8
2022-12-29T17:45:24.584Z,1.8
2022-12-29T17:50:26.705Z,1.7
2022-12-29T17:55:42.572Z,1.6
2022-12-29T18:00:31.821Z,1.5
2022-12-29T18:05:33.942Z,1.5
2022-12-29T18:10:36.280Z,1.5
2022-12-29T18:15:39.196Z,1.4
2022-12-29T18:20:41.328Z,1.4
2022-12-29T18:25:43.489Z,1.4
2022-12-29T18:30:46.305Z,1.3
2022-12-29T18:35:48.609Z,1.3
2022-12-29T18:45:51.803Z,1.3
2022-12-29T18:50:57.083Z,1.2
2022-12-29T18:55:59.701Z,1.2
2022-12-29T19:01:02.300Z,1.2
2022-12-29T19:06:04.545Z,1.2
2022-12-29T19:11:06.919Z,1.2
2022-12-29T19:16:09.206Z,1
2022-12-29T19:21:12.163Z,0.9
2022-12-29T19:26:14.228Z,0.9
2022-12-29T19:31:17.433Z,0.8
2022-12-29T19:36:20.004Z,0.8
2022-12-29T19:41:22.812Z,0.8
2022-12-29T19:51:26.778Z,0.9
2022-12-29T19:56:29.312Z,0.8
2022-12-29T20:01:31.954Z,0.8
2022-12-29T20:06:34.457Z,0.8
2022-12-29T20:11:36.781Z,0.7
2022-12-29T20:17:12.631Z,0.7
2022-12-29T20:21:53.647Z,0.6
2022-12-29T20:26:47.420Z,0.6
2022-12-29T20:31:50.709Z,0.7
2022-12-29T20:36:53.126Z,0.7
2022-12-29T20:41:55.898Z,0.7
2022-12-29T20:46:59.394Z,0.7
2022-12-29T20:52:10.177Z,0.6
2022-12-29T20:57:03.349Z,0.6
2022-12-29T21:02:06.734Z,0.6
2022-12-29T21:07:19.689Z,0.6
2022-12-29T21:12:15.668Z,0.6
2022-12-29T21:17:18.056Z,0.5
2022-12-29T21:22:23.489Z,0.7
2022-12-29T21:27:25.553Z,0.6
2022-12-29T21:32:27.705Z,0.8
2022-12-29T21:37:29.690Z,0.8
2022-12-29T21:42:31.689Z,0.8
2022-12-29T21:47:33.982Z,0.9
2022-12-29T21:52:36.119Z,0.8
2022-12-29T21:57:38.290Z,0.8
2022-12-29T22:02:41.256Z,0.8
2022-12-29T22:07:43.774Z,0.7
2022-12-29T22:12:46.581Z,0.9
2022-12-29T22:17:51.079Z,0.9
2022-12-29T22:22:53.103Z,0.8
2022-12-29T22:28:01.092Z,0.8
2022-12-29T22:33:03.977Z,0.7
2022-12-29T22:38:06.317Z,0.6
2022-12-29T22:43:14.924Z,0.5
2022-12-29T22:48:17.190Z,0.5
2022-12-29T22:53:19.389Z,0.5
2022-12-29T22:58:21.796Z,0.6
2022-12-29T23:03:24.651Z,0.5
2022-12-29T23:08:26.979Z,0.5
2022-12-29T23:13:29.071Z,0.6
2022-12-29T23:18:31.358Z,0.5
2022-12-29T23:23:33.435Z,0.5
2022-12-29T23:28:35.488Z,0.4
2022-12-29T23:33:37.714Z,0.3
2022-12-29T23:38:39.794Z,0.4
2022-12-29T23:43:41.907Z,0.3
2022-12-29T23:48:44.129Z,0.5
2022-12-29T23:53:46.208Z,0.7
2022-12-29T23:58:48.425Z,0.7
